Crouch, ID

4:36 AM MST on December 06, 2016 (GMT -0700)
Garden Valley At Mountain Shadows | | Change Station

Elev 3301 ft 44.12 °N, 115.98 °W | Updated 2 minutes ago

Overcast
Overcast
13.5 °F
Feels Like 14 °F
N
0.0
Wind Variable Wind from South
Gusts 1.0 mph

Today
High -- | Low -- °F
--% Chance of Precip.
Yesterday
High -- | Low -- °F
Precip. -- in
Pressure 29.97 in
Visibility 10.0 miles
Clouds Mostly Cloudy 4800 ft
Overcast 7000 ft
Windchill 14 °F
Dew Point 11 °F
Humidity 88%
Rainfall 0.00 in
Snow Depth Not available.
8:04 AM 5:05 PM
Waxing Crescent, 41% visible
METAR KBOI 061053Z 11010KT 10SM BKN048 OVC070 M03/M13 A2991 RMK AO2 SLP147 T10331128
Pressure 29.97 in
Visibility 10.0 miles
Clouds Mostly Cloudy 4800 ft
Overcast 7000 ft
Windchill 14 °F
Dew Point 11 °F
Humidity 88%
Rainfall 0.00 in
Snow Depth Not available.
8:04 AM 5:05 PM
Waxing Crescent, 41% visible
METAR KBOI 061053Z 11010KT 10SM BKN048 OVC070 M03/M13 A2991 RMK AO2 SLP147 T10331128

10-Day Weather Forecast

Almanac

Astronomy

Dec. 06, 2016 Rise Set
Actual Time
Civil Twilight
Nautical Twilight
Astronomical Twilight
Moon
Length of Visible Light
Length of Day
Tomorrow will be .
, % of the Moon is Illuminated

Today's Extremes

State Highs State Lows

Community

WunderPhotos

Upload Photos

1,955,935 photos uploaded!

WunderBlog® & News

Nearby

Air Quality

  Air Quality AQ Index Pollutant
Not available.

Snow Depth

Station Depth Elevation

Earthquake Activity

City Distance Mag. Time & Date
Minimum magnitude displayed is 2.5.

Coastal Water Temperatures

Place Temperature

Stations

Nearby Weather Stations

Station Location Temp. Windchill Dew Point Humidity Wind Precip. Elev Updated Type
                   

Watches & Warnings

There are currently no watches in effect.